Time;durP1;ratioP1;P1;durP2;ratioP2;P2;SDS_P1;SDS_P2;PMS_P1;PMS_P2;Temp;Humidity;BMP_temperature;BMP_pressure;BME280_temperature;BME280_humidity;BME280_pressure;Samples;Min_cycle;Max_cycle;Signal;HPM_P1;HPM_P2
2023/02/02 00:00:29;;;;;;;;;;;;;;;16.04;43.58;100703.72;4959627;28;1081;-46
2023/02/02 00:02:54;;;;;;;;;;;;;;;15.65;44.12;100700.59;4960072;28;1205;-52
2023/02/02 00:05:20;;;;;;;;;;;;;;;15.35;45.06;100702.94;4959475;28;1030;-51
2023/02/02 00:07:45;;;;;;;;;;;;;;;16.82;41.84;100698.28;4959660;28;1026;-52
2023/02/02 00:10:11;;;;;;;;;;;;;;;17.17;40.80;100691.88;4959657;28;999;-54
2023/02/02 00:12:36;;;;;;;;;;;;;;;16.19;43.21;100693.88;4959706;28;999;-51
2023/02/02 00:15:01;;;;;;;;;;;;;;;15.69;44.20;100697.03;4959574;28;1030;-53
2023/02/02 00:17:27;;;;;;;;;;;;;;;15.45;44.88;100691.19;4960940;28;1987;-52
2023/02/02 00:19:52;;;;;;;;;;;;;;;16.62;42.39;100690.84;4964692;28;1730;-52
2023/02/02 00:22:18;;;;;;;;;;;;;;;17.41;40.57;100677.50;4959632;28;1083;-52
2023/02/02 00:24:43;;;;;;;;;;;;;;;16.24;43.04;100674.66;4959246;28;1034;-50
2023/02/02 00:27:09;;;;;;;;;;;;;;;15.77;44.05;100671.03;4959135;28;1030;-53
2023/02/02 00:29:34;;;;;;;;;;;;;;;15.52;44.55;100674.50;4974764;28;1088;-51
2023/02/02 00:32:00;;;;;;;;;;;;;;;15.85;44.14;100676.00;4959473;28;1057;-49
2023/02/02 00:34:25;;;;;;;;;;;;;;;17.30;40.83;100671.22;4958960;28;1017;-54
2023/02/02 00:36:51;;;;;;;;;;;;;;;16.68;42.11;100676.03;4959297;28;1121;-49
2023/02/02 00:39:17;;;;;;;;;;;;;;;15.91;43.66;100685.88;4958930;28;1907;-52
2023/02/02 00:41:43;;;;;;;;;;;;;;;15.61;44.57;100691.25;4943423;28;2222;-54
2023/02/02 00:46:52;;;;;;;;;;;;;;;16.98;41.32;100686.16;4959140;28;991;-53
2023/02/02 00:49:18;;;;;;;;;;;;;;;16.92;41.27;100674.38;4959067;28;1003;-51
2023/02/02 00:51:43;;;;;;;;;;;;;;;16.05;43.41;100675.22;4964297;28;2589;-51
2023/02/02 00:54:09;;;;;;;;;;;;;;;15.66;44.07;100675.66;4960963;28;1093;-52
2023/02/02 00:56:35;;;;;;;;;;;;;;;15.40;44.84;100664.63;4959018;28;1204;-53
2023/02/02 00:59:00;;;;;;;;;;;;;;;15.98;43.57;100660.94;4958983;28;1976;-53
2023/02/02 01:01:26;;;;;;;;;;;;;;;17.32;40.64;100659.94;4958934;28;1109;-47
2023/02/02 01:03:51;;;;;;;;;;;;;;;16.65;42.06;100662.84;4958772;28;1138;-52
2023/02/02 01:06:17;;;;;;;;;;;;;;;15.97;43.48;100645.56;4946678;28;1373;-52
2023/02/02 01:08:42;;;;;;;;;;;;;;;15.63;44.53;100651.53;4944595;28;2257;-53
2023/02/02 01:11:08;;;;;;;;;;;;;;;15.59;44.63;100650.41;4941375;29;1486;-56
2023/02/02 01:13:33;;;;;;;;;;;;;;;17.15;41.37;100649.31;4958857;28;1142;-52
2023/02/02 01:16:00;;;;;;;;;;;;;;;16.41;42.46;100638.72;4941440;29;1344;-55
2023/02/02 01:18:25;;;;;;;;;;;;;;;15.78;44.19;100638.94;4943679;28;1903;-51
2023/02/02 01:21:00;;;;;;;;;;;;;;;15.55;44.44;100646.56;4958542;28;1810;-45
2023/02/02 01:23:26;;;;;;;;;;;;;;;15.56;44.57;100650.97;4958582;28;1090;-49
2023/02/02 01:25:55;;;;;;;;;;;;;;;17.12;41.15;100652.63;4958119;28;1010;-50
2023/02/02 01:28:21;;;;;;;;;;;;;;;16.74;41.72;100641.97;4941139;29;1137;-49
2023/02/02 01:30:47;;;;;;;;;;;;;;;15.95;43.59;100645.03;4958281;28;1073;-51
2023/02/02 01:33:14;;;;;;;;;;;;;;;15.59;44.27;100642.19;4958392;28;1110;-46
2023/02/02 01:35:46;;;;;;;;;;;;;;;15.30;45.29;100650.84;4958115;28;1364;-49
2023/02/02 01:38:11;;;;;;;;;;;;;;;16.14;43.39;100647.25;4941124;29;1907;-54
2023/02/02 01:40:42;;;;;;;;;;;;;;;17.36;40.63;100639.88;4958176;28;1046;-49
2023/02/02 01:43:20;;;;;;;;;;;;;;;16.43;42.58;100640.09;4962192;28;1042;-48
2023/02/02 01:45:46;;;;;;;;;;;;;;;15.80;43.82;100634.88;4941382;28;1050;-47
2023/02/02 01:48:12;;;;;;;;;;;;;;;15.50;44.71;100635.59;4940727;29;1117;-52
2023/02/02 01:50:37;;;;;;;;;;;;;;;16.20;43.12;100632.41;4924960;28;2252;-54
2023/02/02 01:53:02;;;;;;;;;;;;;;;17.42;40.30;100626.94;4941108;29;1035;-53
2023/02/02 01:55:28;;;;;;;;;;;;;;;16.39;42.47;100628.03;4969225;28;1098;-49
2023/02/02 01:57:53;;;;;;;;;;;;;;;15.83;43.75;100634.31;4956699;28;1974;-51
2023/02/02 02:00:24;;;;;;;;;;;;;;;15.52;44.69;100641.63;4940593;29;1122;-54
2023/02/02 02:02:50;;;;;;;;;;;;;;;15.37;44.93;100640.47;4941794;29;1055;-54
2023/02/02 02:05:21;;;;;;;;;;;;;;;17.02;41.26;100629.56;4973816;28;1207;-53
2023/02/02 02:07:46;;;;;;;;;;;;;;;17.32;40.32;100632.47;4962214;28;1284;-51
2023/02/02 02:10:12;;;;;;;;;;;;;;;16.23;43.03;100631.91;4972680;28;1046;-45
2023/02/02 02:12:37;;;;;;;;;;;;;;;15.72;44.00;100624.41;4957921;28;986;-50
2023/02/02 02:18:00;;;;;;;;;;;;;;;15.79;44.05;100627.72;4972437;28;2309;-48
2023/02/02 02:26:45;;;;;;;;;;;;;;;15.66;44.25;100630.97;4947388;28;1051;-51
2023/02/02 02:29:24;;;;;;;;;;;;;;;15.62;44.55;100635.34;4961743;28;999;-49
2023/02/02 02:32:13;;;;;;;;;;;;;;;17.31;40.80;100617.09;4950101;29;1229;-55
2023/02/02 02:34:38;;;;;;;;;;;;;;;16.41;42.41;100634.06;4971259;28;1387;-50
2023/02/02 02:37:22;;;;;;;;;;;;;;;15.83;43.94;100619.78;4961540;28;1042;-48
2023/02/02 02:39:58;;;;;;;;;;;;;;;15.49;44.50;100628.47;4944107;29;1906;-51
2023/02/02 02:42:24;;;;;;;;;;;;;;;16.18;43.24;100632.69;4976544;28;1172;-50
2023/02/02 02:44:50;;;;;;;;;;;;;;;17.43;40.50;100628.56;4960077;28;1145;-54
2023/02/02 02:47:16;;;;;;;;;;;;;;;16.53;42.18;100621.97;4944241;29;1069;-48
2023/02/02 02:49:42;;;;;;;;;;;;;;;15.86;43.62;100625.53;4944255;29;1102;-53
2023/02/02 02:52:08;;;;;;;;;;;;;;;15.55;44.37;100625.44;4961137;28;2500;-47
2023/02/02 02:54:40;;;;;;;;;;;;;;;15.46;44.64;100635.31;4929182;28;1123;-54
2023/02/02 02:57:13;;;;;;;;;;;;;;;17.14;40.82;100631.16;4966045;28;1309;-51
2023/02/02 02:59:52;;;;;;;;;;;;;;;16.66;41.71;100626.06;4961128;28;1906;-55
2023/02/02 03:02:17;;;;;;;;;;;;;;;15.89;43.45;100629.66;4961233;28;1069;-50
2023/02/02 03:04:42;;;;;;;;;;;;;;;15.55;44.16;100630.94;4961135;28;1086;-49
2023/02/02 03:07:31;;;;;;;;;;;;;;;15.72;44.04;100627.13;4962552;28;1002;-49
2023/02/02 03:09:57;;;;;;;;;;;;;;;17.35;40.67;100629.16;4942196;29;1080;-47
2023/02/02 03:12:22;;;;;;;;;;;;;;;16.39;42.55;100633.50;4943908;29;1086;-52
2023/02/02 03:14:47;;;;;;;;;;;;;;;15.81;43.71;100631.03;4943913;29;968;-50
2023/02/02 03:17:13;;;;;;;;;;;;;;;15.52;44.46;100636.16;4960763;28;1093;-45
2023/02/02 03:19:38;;;;;;;;;;;;;;;15.82;43.93;100631.84;4967783;28;1903;-49
2023/02/02 03:22:04;;;;;;;;;;;;;;;17.27;40.83;100620.41;4961603;28;1876;-54
2023/02/02 03:24:29;;;;;;;;;;;;;;;16.94;41.29;100624.66;4960495;28;1112;-51
2023/02/02 03:26:54;;;;;;;;;;;;;;;16.05;43.30;100633.25;4960316;28;1049;-51
2023/02/02 03:29:20;;;;;;;;;;;;;;;15.67;44.26;100625.22;4943596;29;1021;-50
2023/02/02 03:31:46;;;;;;;;;;;;;;;15.42;44.70;100630.63;4962406;28;1148;-46
2023/02/02 03:34:11;;;;;;;;;;;;;;;16.57;42.09;100628.56;4960296;28;1027;-49
2023/02/02 03:36:36;;;;;;;;;;;;;;;17.46;40.03;100630.78;4960244;28;1125;-51
2023/02/02 03:39:02;;;;;;;;;;;;;;;16.24;42.63;100626.13;4960607;28;1912;-50
2023/02/02 03:41:27;;;;;;;;;;;;;;;15.72;44.18;100625.25;4960655;28;1153;-49
2023/02/02 03:43:53;;;;;;;;;;;;;;;15.50;44.72;100633.69;4968336;28;1126;-51
2023/02/02 03:46:18;;;;;;;;;;;;;;;15.27;44.92;100628.66;4961759;28;1049;-51
2023/02/02 03:48:44;;;;;;;;;;;;;;;16.32;42.92;100622.00;4959880;28;1003;-51
2023/02/02 03:51:10;;;;;;;;;;;;;;;17.38;40.35;100618.44;4959464;28;2458;-51
2023/02/02 03:53:36;;;;;;;;;;;;;;;16.57;42.07;100615.66;4959986;28;1126;-54
2023/02/02 03:56:01;;;;;;;;;;;;;;;15.87;43.48;100612.66;4964151;28;1106;-52
2023/02/02 03:58:26;;;;;;;;;;;;;;;15.57;44.32;100606.00;4959858;28;1899;-52
2023/02/02 04:00:54;;;;;;;;;;;;;;;15.84;43.90;100616.78;4972925;28;1164;-52
2023/02/02 04:03:19;;;;;;;;;;;;;;;17.27;40.54;100611.34;4960205;28;1169;-49
2023/02/02 04:05:47;;;;;;;;;;;;;;;16.79;41.48;100619.16;4959871;28;1261;-50
2023/02/02 04:08:13;;;;;;;;;;;;;;;15.99;43.08;100618.72;4969116;28;1098;-53
2023/02/02 04:10:41;;;;;;;;;;;;;;;15.64;43.95;100623.03;4961586;28;1061;-50
2023/02/02 04:13:06;;;;;;;;;;;;;;;15.39;44.46;100621.03;4960243;28;1045;-52
2023/02/02 04:15:32;;;;;;;;;;;;;;;16.12;42.98;100613.75;4959614;28;999;-45
2023/02/02 04:17:57;;;;;;;;;;;;;;;17.38;40.21;100610.19;4960247;28;1907;-52
2023/02/02 04:20:23;;;;;;;;;;;;;;;16.43;41.97;100604.41;4959601;28;2292;-55
2023/02/02 04:22:48;;;;;;;;;;;;;;;15.84;43.44;100618.72;4951991;28;1061;-48
2023/02/02 04:25:13;;;;;;;;;;;;;;;15.49;44.33;100623.81;4959361;28;1148;-48
2023/02/02 04:27:39;;;;;;;;;;;;;;;15.33;44.56;100627.59;4959272;28;1204;-49
2023/02/02 04:30:05;;;;;;;;;;;;;;;16.96;41.00;100624.34;4959440;28;1062;-55
2023/02/02 04:32:30;;;;;;;;;;;;;;;17.07;40.59;100629.56;4969503;28;1204;-49
2023/02/02 04:34:55;;;;;;;;;;;;;;;16.10;42.67;100629.69;4960767;28;1136;-49
2023/02/02 04:37:21;;;;;;;;;;;;;;;15.67;44.02;100638.94;4959117;28;1185;-51
2023/02/02 04:39:47;;;;;;;;;;;;;;;15.42;44.42;100645.16;4958879;28;1918;-55
2023/02/02 04:42:12;;;;;;;;;;;;;;;16.49;42.06;100649.13;4959142;28;1002;-52
2023/02/02 04:44:38;;;;;;;;;;;;;;;17.30;40.26;100635.50;4963997;28;1216;-55
2023/02/02 04:47:04;;;;;;;;;;;;;;;16.16;42.81;100651.38;4959023;28;1117;-54
2023/02/02 04:49:29;;;;;;;;;;;;;;;15.69;43.66;100655.09;4959041;28;1090;-48
2023/02/02 04:51:54;;;;;;;;;;;;;;;15.38;44.61;100652.28;4970630;28;2333;-54
2023/02/02 04:54:20;;;;;;;;;;;;;;;16.21;42.70;100650.53;4958273;28;1219;-53
2023/02/02 04:56:45;;;;;;;;;;;;;;;17.41;40.33;100650.84;4958727;28;898;-51
2023/02/02 04:59:11;;;;;;;;;;;;;;;16.67;41.67;100645.00;4958341;28;1979;-52
2023/02/02 05:01:36;;;;;;;;;;;;;;;15.97;43.22;100644.78;4958858;28;1073;-50
2023/02/02 05:04:02;;;;;;;;;;;;;;;15.60;43.91;100649.34;4958727;28;1217;-46
2023/02/02 05:06:27;;;;;;;;;;;;;;;15.34;44.66;100649.22;4958537;28;1038;-48
2023/02/02 05:08:53;;;;;;;;;;;;;;;16.31;42.82;100646.97;4965722;28;1054;-46
2023/02/02 05:11:19;;;;;;;;;;;;;;;17.44;40.17;100642.03;4958024;28;957;-54
2023/02/02 05:13:47;;;;;;;;;;;;;;;16.60;41.66;100642.53;4967647;28;1086;-48
2023/02/02 05:16:12;;;;;;;;;;;;;;;15.92;43.15;100634.59;4958369;28;1431;-50
2023/02/02 05:18:38;;;;;;;;;;;;;;;15.60;43.86;100645.75;4953288;28;1978;-50
2023/02/02 05:21:03;;;;;;;;;;;;;;;15.73;43.97;100637.03;4959668;28;1056;-47
2023/02/02 05:23:29;;;;;;;;;;;;;;;17.26;40.56;100651.75;4958415;28;1224;-50
2023/02/02 05:25:55;;;;;;;;;;;;;;;16.51;41.94;100652.44;4959152;28;910;-44
2023/02/02 05:28:20;;;;;;;;;;;;;;;15.94;43.02;100656.28;4971571;28;1138;-52
2023/02/02 05:30:46;;;;;;;;;;;;;;;15.56;44.23;100660.00;4957152;28;1022;-48
2023/02/02 05:33:11;;;;;;;;;;;;;;;15.33;44.59;100658.56;4958405;28;833;-48
2023/02/02 05:35:37;;;;;;;;;;;;;;;16.80;41.40;100668.31;4958432;28;1066;-49
2023/02/02 05:38:02;;;;;;;;;;;;;;;17.53;39.61;100660.69;4958740;28;1907;-45
2023/02/02 05:40:28;;;;;;;;;;;;;;;16.35;42.33;100665.34;4959011;28;1077;-45
2023/02/02 05:42:53;;;;;;;;;;;;;;;15.82;43.24;100675.72;4958493;28;1082;-46
2023/02/02 05:45:19;;;;;;;;;;;;;;;15.53;44.10;100674.25;4965073;28;1137;-44
2023/02/02 05:47:44;;;;;;;;;;;;;;;16.59;41.78;100676.59;4958565;28;1213;-46
2023/02/02 05:50:09;;;;;;;;;;;;;;;17.16;40.37;100673.75;4958503;28;1035;-46
2023/02/02 05:52:35;;;;;;;;;;;;;;;16.14;42.55;100671.94;4958484;28;1121;-48
2023/02/02 05:55:00;;;;;;;;;;;;;;;15.68;43.68;100676.22;4958106;28;1138;-45
2023/02/02 05:57:26;;;;;;;;;;;;;;;15.40;44.28;100678.31;4967457;28;1157;-46
2023/02/02 05:59:52;;;;;;;;;;;;;;;16.98;41.12;100677.09;4958371;28;1902;-45
2023/02/02 06:02:18;;;;;;;;;;;;;;;17.37;39.78;100671.75;4961449;28;1029;-45
2023/02/02 06:04:43;;;;;;;;;;;;;;;16.25;42.29;100676.31;4968121;28;1038;-48
2023/02/02 06:07:08;;;;;;;;;;;;;;;15.86;43.41;100685.06;4958335;28;1101;-45
2023/02/02 06:09:34;;;;;;;;;;;;;;;15.51;44.13;100684.63;4958310;28;839;-42
2023/02/02 06:11:59;;;;;;;;;;;;;;;15.28;44.47;100691.41;4958523;28;1173;-45
2023/02/02 06:14:25;;;;;;;;;;;;;;;16.73;41.37;100682.34;4958349;28;1117;-45
2023/02/02 06:16:50;;;;;;;;;;;;;;;17.72;39.25;100675.41;4958210;28;1054;-51
2023/02/02 06:19:16;;;;;;;;;;;;;;;17.90;39.04;100675.88;4957833;28;1898;-47
2023/02/02 06:21:41;;;;;;;;;;;;;;;16.45;42.03;100677.44;4967705;28;1141;-50
2023/02/02 06:24:07;;;;;;;;;;;;;;;15.86;43.53;100683.13;4958037;28;1054;-46
2023/02/02 06:26:32;;;;;;;;;;;;;;;15.56;44.05;100681.09;4958050;28;1054;-46
2023/02/02 06:28:57;;;;;;;;;;;;;;;15.27;44.28;100667.03;4958152;28;1429;-45
2023/02/02 06:31:23;;;;;;;;;;;;;;;16.33;42.38;100688.69;4958395;28;1130;-45
2023/02/02 06:33:52;;;;;;;;;;;;;;;15.46;44.23;100692.00;4964330;28;1261;-44
2023/02/02 06:36:17;;;;;;;;;;;;;;;15.34;44.35;100698.53;4962428;28;1102;-44
2023/02/02 06:38:43;;;;;;;;;;;;;;;15.25;44.10;100696.59;4976002;28;1906;-46
2023/02/02 06:41:08;;;;;;;;;;;;;;;15.99;43.08;100706.47;4964324;28;1133;-48
2023/02/02 06:43:34;;;;;;;;;;;;;;;15.26;44.70;100699.06;4964910;28;1026;-49
2023/02/02 06:45:59;;;;;;;;;;;;;;;15.06;44.47;100708.81;4973569;28;1109;-47
2023/02/02 06:48:25;;;;;;;;;;;;;;;15.01;44.59;100702.47;4964053;28;1214;-46
2023/02/02 06:50:50;;;;;;;;;;;;;;;15.50;44.12;100704.09;4970674;28;1134;-46
2023/02/02 06:53:21;;;;;;;;;;;;;;;15.05;44.92;100707.19;4960818;28;1275;-44
2023/02/02 06:55:53;;;;;;;;;;;;;;;16.87;41.36;100709.22;4967529;28;1246;-43
2023/02/02 06:58:18;;;;;;;;;;;;;;;15.54;44.18;100699.72;4966958;28;1902;-42
2023/02/02 07:00:44;;;;;;;;;;;;;;;15.19;44.41;100715.75;4974413;28;1578;-47
2023/02/02 07:03:09;;;;;;;;;;;;;;;15.07;44.92;100717.88;4966725;28;1145;-49
2023/02/02 07:05:35;;;;;;;;;;;;;;;15.62;43.78;100718.38;4970319;28;1109;-44
2023/02/02 07:08:00;;;;;;;;;;;;;;;15.08;44.88;100718.69;4969846;28;1124;-46
2023/02/02 07:10:26;;;;;;;;;;;;;;;14.91;45.06;100730.63;4976923;28;1057;-42
2023/02/02 07:12:52;;;;;;;;;;;;;;;14.85;44.77;100718.81;4970528;28;1022;-45
2023/02/02 07:15:18;;;;;;;;;;;;;;;16.14;42.76;100721.31;4976960;28;1081;-46
2023/02/02 07:17:43;;;;;;;;;;;;;;;15.32;44.47;100719.06;4970374;28;1910;-48
2023/02/02 07:20:09;;;;;;;;;;;;;;;15.09;45.16;100720.34;4963645;28;1125;-48
2023/02/02 07:22:37;;;;;;;;;;;;;;;16.01;43.17;100730.88;4964758;28;1170;-44
2023/02/02 07:25:02;;;;;;;;;;;;;;;15.20;44.79;100722.03;4971107;28;1165;-47
2023/02/02 07:27:28;;;;;;;;;;;;;;;14.96;44.87;100718.91;4966468;28;1111;-48
2023/02/02 07:29:53;;;;;;;;;;;;;;;15.51;44.27;100727.66;4959134;28;1290;-42
2023/02/02 07:32:18;;;;;;;;;;;;;;;15.38;44.27;100729.00;4965435;28;1651;-47
2023/02/02 07:34:44;;;;;;;;;;;;;;;15.00;45.17;100723.56;4967714;28;1188;-44
2023/02/02 07:37:09;;;;;;;;;;;;;;;14.78;45.13;100726.44;4964419;28;1201;-45
2023/02/02 07:39:35;;;;;;;;;;;;;;;15.45;44.33;100731.50;4964822;28;1903;-44
2023/02/02 07:42:00;;;;;;;;;;;;;;;15.56;44.14;100735.94;4954711;28;1421;-44
2023/02/02 07:44:34;;;;;;;;;;;;;;;14.86;45.26;100734.16;4977137;28;1127;-42
2023/02/02 07:47:00;;;;;;;;;;;;;;;15.67;44.00;100739.50;4961018;28;1094;-49
2023/02/02 07:49:25;;;;;;;;;;;;;;;15.40;44.34;100733.13;4974638;28;1113;-47
2023/02/02 07:51:50;;;;;;;;;;;;;;;14.89;44.93;100739.09;4979303;28;1073;-49
2023/02/02 07:54:16;;;;;;;;;;;;;;;16.41;42.11;100732.03;4962888;28;1145;-44
2023/02/02 07:56:41;;;;;;;;;;;;;;;15.51;44.12;100755.88;4969722;28;1134;-46
2023/02/02 07:59:08;;;;;;;;;;;;;;;15.00;44.89;100741.94;4975773;28;1914;-43
2023/02/02 08:01:33;;;;;;;;;;;;;;;14.83;45.10;100744.78;4985066;28;1129;-44
2023/02/02 08:04:05;;;;;;;;;;;;;;;15.18;44.34;100757.91;4976099;28;1041;-42
2023/02/02 08:06:31;;;;;;;;;;;;;;;15.29;44.57;100750.59;4964435;28;1063;-45
2023/02/02 08:08:57;;;;;;;;;;;;;;;15.05;44.89;100753.75;4959694;28;1265;-43
2023/02/02 08:11:23;;;;;;;;;;;;;;;15.47;44.24;100754.78;4958961;28;1072;-42
2023/02/02 08:13:49;;;;;;;;;;;;;;;15.85;43.33;100738.22;4967736;28;1055;-45
2023/02/02 08:16:14;;;;;;;;;;;;;;;15.11;44.98;100751.84;4978159;28;1033;-42
2023/02/02 08:18:41;;;;;;;;;;;;;;;17.02;41.00;100739.44;4977889;28;1904;-43
2023/02/02 08:21:07;;;;;;;;;;;;;;;15.72;43.65;100737.63;4983332;28;1041;-41
2023/02/02 08:23:33;;;;;;;;;;;;;;;15.97;43.30;100746.25;4960636;28;1058;-38
2023/02/02 08:26:10;;;;;;;;;;;;;;;16.48;41.96;100748.22;4959122;29;1424;-42
2023/02/02 08:28:36;;;;;;;;;;;;;;;15.58;43.85;100741.94;4959259;29;1095;-48
2023/02/02 08:31:05;;;;;;;;;;;;;;;15.19;44.51;100751.34;4959157;28;1126;-48
2023/02/02 08:33:30;;;;;;;;;;;;;;;15.04;44.33;100749.34;4962995;28;1094;-44
2023/02/02 08:35:56;;;;;;;;;;;;;;;16.47;41.95;100750.16;4957280;29;1091;-46
2023/02/02 08:38:22;;;;;;;;;;;;;;;15.44;44.12;100743.53;4972164;28;1906;-52
2023/02/02 08:40:47;;;;;;;;;;;;;;;15.38;44.74;100748.97;4966104;28;1393;-45
2023/02/02 08:43:13;;;;;;;;;;;;;;;16.03;43.02;100756.97;4971696;28;982;-41
2023/02/02 08:45:41;;;;;;;;;;;;;;;15.42;44.54;100759.41;4965314;28;1174;-47
2023/02/02 08:48:06;;;;;;;;;;;;;;;17.10;41.10;100760.06;4967642;28;1139;-48
2023/02/02 08:50:32;;;;;;;;;;;;;;;15.95;43.02;100754.75;4960431;28;908;-45
2023/02/02 08:52:57;;;;;;;;;;;;;;;15.56;44.25;100760.59;4967008;28;1089;-45
2023/02/02 08:55:23;;;;;;;;;;;;;;;16.41;42.21;100757.56;4971516;28;1160;-46
2023/02/02 08:57:48;;;;;;;;;;;;;;;15.52;43.93;100745.78;4964922;28;1914;-46
2023/02/02 09:00:14;;;;;;;;;;;;;;;17.41;40.17;100747.03;4978382;28;1403;-45
2023/02/02 09:02:39;;;;;;;;;;;;;;;16.31;42.37;100746.56;4965660;28;1192;-43
2023/02/02 09:05:06;;;;;;;;;;;;;;;15.71;43.60;100755.16;4977874;28;1018;-46
2023/02/02 09:07:31;;;;;;;;;;;;;;;15.59;44.01;100745.53;4971260;28;1054;-49
2023/02/02 09:09:57;;;;;;;;;;;;;;;16.66;42.11;100750.44;4971764;28;1109;-46
2023/02/02 09:12:22;;;;;;;;;;;;;;;15.85;43.49;100752.78;4972150;28;1074;-44
2023/02/02 09:14:48;;;;;;;;;;;;;;;15.38;44.51;100756.38;4971539;28;1066;-48
2023/02/02 09:17:13;;;;;;;;;;;;;;;15.33;44.14;100759.94;4986942;28;1080;-44
2023/02/02 09:19:39;;;;;;;;;;;;;;;15.36;44.33;100756.66;4971112;28;1981;-42
2023/02/02 09:22:04;;;;;;;;;;;;;;;16.62;41.90;100749.34;4977380;28;1022;-48
2023/02/02 09:24:30;;;;;;;;;;;;;;;15.50;44.35;100757.00;4965542;28;1113;-42
2023/02/02 09:26:55;;;;;;;;;;;;;;;15.72;43.87;100751.34;4972703;28;1019;-44
2023/02/02 09:29:21;;;;;;;;;;;;;;;15.90;43.20;100746.50;4977740;28;1065;-47
2023/02/02 09:31:46;;;;;;;;;;;;;;;15.45;44.23;100739.72;4965194;28;1121;-44
2023/02/02 09:34:12;;;;;;;;;;;;;;;16.00;43.32;100741.00;4965543;28;1031;-47
2023/02/02 09:36:37;;;;;;;;;;;;;;;15.89;43.48;100737.44;4958281;28;1125;-46
2023/02/02 09:39:03;;;;;;;;;;;;;;;15.40;44.35;100729.53;4939436;29;1989;-44
2023/02/02 09:41:35;;;;;;;;;;;;;;;15.89;43.76;100720.16;4955825;28;1065;-47
2023/02/02 09:44:11;;;;;;;;;;;;;;;15.86;43.54;100721.50;4957093;28;1237;-43
2023/02/02 09:46:40;;;;;;;;;;;;;;;15.38;44.32;100718.03;4971722;28;842;-48
2023/02/02 09:49:07;;;;;;;;;;;;;;;16.69;41.79;100702.38;4957819;28;1042;-51
2023/02/02 09:51:35;;;;;;;;;;;;;;;16.00;43.27;100710.84;4941746;29;968;-45
2023/02/02 09:54:15;;;;;;;;;;;;;;;17.78;39.62;100679.81;4941113;28;1105;-46
2023/02/02 09:56:42;;;;;;;;;;;;;;;16.67;41.51;100690.88;4956858;28;912;-45
2023/02/02 09:59:11;;;;;;;;;;;;;;;15.87;43.24;100682.03;4947850;28;1980;-48
2023/02/02 10:01:37;;;;;;;;;;;;;;;15.69;43.82;100668.81;4941181;29;1054;-47
2023/02/02 10:04:26;;;;;;;;;;;;;;;15.50;44.04;100663.81;4957705;28;1102;-48
2023/02/02 10:06:52;;;;;;;;;;;;;;;16.28;42.60;100673.03;4952509;28;1731;-50
2023/02/02 10:09:27;;;;;;;;;;;;;;;15.57;44.00;100660.81;4945786;28;987;-44
2023/02/02 10:11:52;;;;;;;;;;;;;;;16.58;41.99;100657.66;4957635;28;852;-43
2023/02/02 10:14:29;;;;;;;;;;;;;;;15.91;43.26;100639.25;4957988;28;1097;-43
2023/02/02 10:16:54;;;;;;;;;;;;;;;15.48;43.88;100640.53;4940893;28;1054;-47
2023/02/02 10:19:24;;;;;;;;;;;;;;;15.29;44.06;100631.94;4940416;29;1978;-42
2023/02/02 10:22:03;;;;;;;;;;;;;;;16.51;42.07;100635.97;4949407;28;1151;-47
2023/02/02 10:24:29;;;;;;;;;;;;;;;15.54;43.84;100650.38;4991859;28;1163;-47
2023/02/02 10:26:54;;;;;;;;;;;;;;;15.36;44.23;100649.81;4977008;28;1098;-52
2023/02/02 10:29:23;;;;;;;;;;;;;;;15.86;43.57;100652.16;4955137;28;1246;-50
2023/02/02 10:32:07;;;;;;;;;;;;;;;15.74;43.48;100649.63;4969668;28;1069;-49
2023/02/02 10:34:39;;;;;;;;;;;;;;;16.98;40.87;100647.72;4957680;28;1073;-51
2023/02/02 10:37:12;;;;;;;;;;;;;;;17.03;40.82;100638.66;4955934;28;1304;-51
2023/02/02 10:39:47;;;;;;;;;;;;;;;15.92;43.05;100645.56;4966746;28;1967;-48
2023/02/02 10:42:33;;;;;;;;;;;;;;;17.31;40.46;100641.84;4973107;28;1082;-47
2023/02/02 10:45:00;;;;;;;;;;;;;;;16.03;42.79;100639.03;4943877;29;1226;-45
2023/02/02 10:47:27;;;;;;;;;;;;;;;15.67;43.59;100638.09;4928126;29;1024;-48
2023/02/02 10:49:59;;;;;;;;;;;;;;;15.36;44.06;100638.84;4961122;28;1106;-52
2023/02/02 10:52:28;;;;;;;;;;;;;;;16.42;42.22;100632.97;4962790;28;1158;-47
2023/02/02 10:54:56;;;;;;;;;;;;;;;15.52;43.77;100630.66;4987170;28;1189;-48
2023/02/02 10:57:31;;;;;;;;;;;;;;;17.18;40.71;100626.75;4973516;28;1106;-53
2023/02/02 11:00:20;;;;;;;;;;;;;;;16.43;41.85;100628.31;4971454;28;1982;-50
2023/02/02 11:02:46;;;;;;;;;;;;;;;15.68;43.45;100626.03;4951940;29;1371;-53
2023/02/02 11:07:56;;;;;;;;;;;;;;;16.63;41.99;100627.44;4956343;28;1125;-50
2023/02/02 11:10:22;;;;;;;;;;;;;;;15.83;43.17;100617.06;4943548;28;1015;-53
2023/02/02 11:12:51;;;;;;;;;;;;;;;15.54;43.74;100610.13;4960591;29;1090;-50
2023/02/02 11:15:27;;;;;;;;;;;;;;;16.54;42.15;100610.72;4960367;29;1087;-51
2023/02/02 11:17:53;;;;;;;;;;;;;;;15.71;43.36;100607.13;4960569;29;1949;-45
2023/02/02 11:20:32;;;;;;;;;;;;;;;15.39;43.92;100608.16;4964687;28;1235;-53
2023/02/02 11:23:01;;;;;;;;;;;;;;;16.56;41.91;100626.91;4972032;28;1164;-56
2023/02/02 11:25:31;;;;;;;;;;;;;;;15.99;42.65;100599.53;4965306;28;1109;-51
2023/02/02 11:27:56;;;;;;;;;;;;;;;15.48;43.71;100619.41;4979811;28;1033;-45
2023/02/02 11:30:22;;;;;;;;;;;;;;;15.36;43.75;100618.81;4977216;28;1172;-51
2023/02/02 11:32:49;;;;;;;;;;;;;;;16.35;42.16;100615.94;4969843;28;1062;-51
2023/02/02 11:35:18;;;;;;;;;;;;;;;15.54;43.87;100612.03;4979518;28;1062;-53
2023/02/02 11:38:05;;;;;;;;;;;;;;;15.17;44.43;100602.88;4979530;28;1084;-49
2023/02/02 11:40:31;;;;;;;;;;;;;;;16.48;42.12;100600.84;4972262;28;1676;-50
2023/02/02 11:42:58;;;;;;;;;;;;;;;15.50;43.90;100595.31;4980066;28;1098;-50
2023/02/02 11:45:40;;;;;;;;;;;;;;;15.98;43.35;100599.81;4994234;28;1255;-52
2023/02/02 11:48:06;;;;;;;;;;;;;;;16.01;42.74;100600.06;4977903;28;1025;-54
2023/02/02 11:50:32;;;;;;;;;;;;;;;15.66;43.82;100603.56;4968338;28;1300;-52
2023/02/02 11:52:57;;;;;;;;;;;;;;;17.36;39.81;100584.91;4972708;28;1073;-44
2023/02/02 11:55:26;;;;;;;;;;;;;;;15.96;42.99;100594.56;4964734;28;1002;-46
2023/02/02 11:58:11;;;;;;;;;;;;;;;15.50;43.71;100600.78;4948932;29;1906;-51
2023/02/02 12:00:56;;;;;;;;;;;;;;;15.28;43.99;100602.91;4972352;28;1026;-48
2023/02/02 12:03:32;;;;;;;;;;;;;;;16.43;41.73;100587.94;4972633;28;1391;-55
2023/02/02 12:05:58;;;;;;;;;;;;;;;15.62;43.56;100586.81;4960890;28;1298;-46
2023/02/02 12:08:23;;;;;;;;;;;;;;;15.37;44.08;100596.63;4959651;29;1313;-48
2023/02/02 12:10:55;;;;;;;;;;;;;;;16.35;42.10;100594.00;4959122;28;1264;-52
2023/02/02 12:13:29;;;;;;;;;;;;;;;15.55;43.62;100591.75;4979398;28;1146;-52
2023/02/02 12:16:05;;;;;;;;;;;;;;;16.86;41.22;100592.25;4980889;28;1240;-51
2023/02/02 12:18:44;;;;;;;;;;;;;;;15.82;42.95;100580.59;4993774;28;1906;-49
2023/02/02 12:21:10;;;;;;;;;;;;;;;15.39;44.01;100575.28;4966472;28;1109;-52
2023/02/02 12:23:54;;;;;;;;;;;;;;;16.52;41.82;100579.16;4978585;28;1084;-52
2023/02/02 12:26:29;;;;;;;;;;;;;;;15.62;43.64;100584.09;4972222;28;1105;-47
2023/02/02 12:29:07;;;;;;;;;;;;;;;17.51;39.79;100578.50;4988888;28;1050;-54
2023/02/02 12:31:45;;;;;;;;;;;;;;;16.87;40.87;100591.13;4993326;28;1120;-48
2023/02/02 12:34:10;;;;;;;;;;;;;;;15.98;42.84;100588.84;4989355;28;1041;-54
2023/02/02 12:36:39;;;;;;;;;;;;;;;15.69;43.31;100584.63;4963568;28;964;-45
2023/02/02 12:39:07;;;;;;;;;;;;;;;15.47;43.59;100584.06;4959987;28;1918;-50
2023/02/02 12:41:42;;;;;;;;;;;;;;;16.88;40.99;100568.91;4966263;28;1252;-45
2023/02/02 12:44:26;;;;;;;;;;;;;;;15.85;43.25;100584.69;4954347;29;1277;-53
2023/02/02 12:46:54;;;;;;;;;;;;;;;15.40;43.78;100574.19;4955164;28;1143;-52
2023/02/02 12:49:32;;;;;;;;;;;;;;;16.66;41.49;100572.00;4964798;28;1043;-53
2023/02/02 12:52:02;;;;;;;;;;;;;;;15.74;43.41;100565.47;4971701;28;1086;-52
2023/02/02 12:54:36;;;;;;;;;;;;;;;17.17;40.33;100559.19;4976709;28;1150;-54
2023/02/02 12:57:01;;;;;;;;;;;;;;;16.54;41.40;100553.06;4978010;28;1037;-55
2023/02/02 12:59:43;;;;;;;;;;;;;;;15.77;43.46;100547.66;4965353;28;1990;-51
2023/02/02 13:02:24;;;;;;;;;;;;;;;16.16;42.80;100549.03;4964060;28;1110;-53
2023/02/02 13:04:56;;;;;;;;;;;;;;;15.84;42.94;100550.97;4967543;28;1157;-55